createdAt,value
2023-03-12T00:00:15.589Z,98842.88
2023-03-12T00:03:04.180Z,98844.53
2023-03-12T00:05:33.201Z,98842.00
2023-03-12T00:08:01.750Z,98840.19
2023-03-12T00:10:30.889Z,98853.00
2023-03-12T00:13:00.898Z,98853.84
2023-03-12T00:15:30.069Z,98866.78
2023-03-12T00:17:58.785Z,98863.44
2023-03-12T00:20:27.573Z,98865.81
2023-03-12T00:22:56.294Z,98858.84
2023-03-12T00:25:25.083Z,98856.22
2023-03-12T00:27:53.683Z,98861.38
2023-03-12T00:30:23.935Z,98864.69
2023-03-12T00:32:52.525Z,98865.81
2023-03-12T00:35:21.388Z,98877.72
2023-03-12T00:37:49.925Z,98877.94
2023-03-12T00:40:19.126Z,98875.34
2023-03-12T00:42:47.613Z,98865.97
2023-03-12T00:45:16.732Z,98864.16
2023-03-12T00:47:46.597Z,98855.56
2023-03-12T00:50:15.339Z,98864.81
2023-03-12T00:52:44.506Z,98865.72
2023-03-12T00:55:13.397Z,98864.13
2023-03-12T00:57:41.972Z,98870.78
2023-03-12T01:00:12.978Z,98860.53
2023-03-12T01:02:41.773Z,98854.25
2023-03-12T01:05:15.013Z,98855.88
2023-03-12T01:07:44.026Z,98844.69
2023-03-12T01:10:16.131Z,98847.38
2023-03-12T01:12:46.157Z,98846.50
2023-03-12T01:15:17.014Z,98859.22
2023-03-12T01:17:45.778Z,98855.84
2023-03-12T01:20:17.818Z,98862.03
2023-03-12T01:22:47.004Z,98853.25
2023-03-12T01:25:15.825Z,98862.78
2023-03-12T01:27:44.535Z,98853.22
2023-03-12T01:30:14.267Z,98856.94
2023-03-12T01:32:43.185Z,98859.47
2023-03-12T01:35:12.227Z,98860.34
2023-03-12T01:37:42.143Z,98864.72
2023-03-12T01:40:16.247Z,98861.00
2023-03-12T01:42:44.989Z,98866.41
2023-03-12T01:45:51.488Z,98867.03
2023-03-12T01:48:21.742Z,98871.53
2023-03-12T01:50:50.951Z,98875.44
2023-03-12T01:53:23.120Z,98881.34
2023-03-12T01:55:52.621Z,98877.03
2023-03-12T01:58:22.232Z,98883.03
2023-03-12T02:00:51.396Z,98877.19
2023-03-12T02:03:20.131Z,98882.16
2023-03-12T02:05:55.058Z,98875.50
2023-03-12T02:08:25.938Z,98884.06
2023-03-12T02:10:54.784Z,98886.69
2023-03-12T02:13:23.599Z,98892.00
2023-03-12T02:15:52.633Z,98886.00
2023-03-12T02:18:21.705Z,98891.56
2023-03-12T02:20:57.897Z,98894.47
2023-03-12T02:23:33.246Z,98912.59
2023-03-12T02:26:05.474Z,98914.34
2023-03-12T02:28:42.638Z,98928.66
2023-03-12T02:31:15.798Z,98925.16
2023-03-12T02:33:44.633Z,98932.25
2023-03-12T02:36:14.261Z,98936.41
2023-03-12T02:38:45.475Z,98934.72
2023-03-12T02:41:21.284Z,98932.94
2023-03-12T02:43:56.127Z,98944.06
2023-03-12T02:46:25.215Z,98944.88
2023-03-12T02:48:55.173Z,98950.25
2023-03-12T02:51:24.246Z,98964.75
2023-03-12T02:53:55.168Z,98958.16
2023-03-12T02:56:28.492Z,98968.53
2023-03-12T02:58:57.086Z,98957.56
2023-03-12T03:01:27.196Z,98967.81
2023-03-12T03:03:56.073Z,98967.53
2023-03-12T03:06:25.054Z,98965.03
2023-03-12T03:08:53.904Z,98977.94
2023-03-12T03:11:24.796Z,98989.81
2023-03-12T03:13:57.544Z,98988.81
2023-03-12T03:16:26.522Z,98992.31
2023-03-12T03:18:55.985Z,99001.81
2023-03-12T03:21:25.008Z,99014.38
2023-03-12T03:23:53.578Z,99006.47
2023-03-12T03:26:24.627Z,99017.97
2023-03-12T03:28:54.290Z,99015.56
2023-03-12T03:31:24.729Z,99023.09
2023-03-12T03:33:53.490Z,99029.03
2023-03-12T03:36:23.308Z,99021.88
2023-03-12T03:39:00.221Z,99021.13
2023-03-12T03:41:29.482Z,99025.19
2023-03-12T03:43:59.467Z,99033.16
2023-03-12T03:46:30.726Z,99030.63
2023-03-12T03:49:03.838Z,99030.28
2023-03-12T03:51:35.385Z,99038.25
2023-03-12T03:54:08.762Z,99047.97
2023-03-12T03:56:37.740Z,99058.28
2023-03-12T03:59:07.547Z,99056.97
2023-03-12T04:01:41.610Z,99057.91
2023-03-12T04:04:10.423Z,99063.53
2023-03-12T04:06:39.233Z,99061.75
2023-03-12T04:09:08.163Z,99063.31
2023-03-12T04:11:39.443Z,99066.47
2023-03-12T04:14:09.970Z,99068.81
2023-03-12T04:16:43.165Z,99078.75
2023-03-12T04:19:11.773Z,99083.50
2023-03-12T04:21:40.712Z,99077.81
2023-03-12T04:24:15.365Z,99079.53
2023-03-12T04:26:45.104Z,99078.44
2023-03-12T04:29:15.139Z,99080.00
2023-03-12T04:31:46.136Z,99086.34
2023-03-12T04:34:14.845Z,99090.69
2023-03-12T04:36:47.972Z,99113.22
2023-03-12T04:39:19.746Z,99097.44
2023-03-12T04:41:51.365Z,99101.13
2023-03-12T04:44:19.974Z,99109.09
2023-03-12T04:46:50.536Z,99112.97
2023-03-12T04:49:22.661Z,99117.06
2023-03-12T04:51:51.682Z,99115.00
2023-03-12T04:54:22.492Z,99125.97
2023-03-12T04:56:52.752Z,99121.56
2023-03-12T04:59:24.713Z,99133.81
2023-03-12T05:01:56.011Z,99134.56
2023-03-12T05:04:28.686Z,99147.56
2023-03-12T05:06:58.098Z,99141.34
2023-03-12T05:09:26.851Z,99160.34
2023-03-12T05:11:55.951Z,99150.09
2023-03-12T05:14:25.171Z,99158.03
2023-03-12T05:16:56.144Z,99168.84
2023-03-12T05:19:25.362Z,99170.59
2023-03-12T05:21:54.148Z,99180.75
2023-03-12T05:24:23.126Z,99173.09
2023-03-12T05:26:52.284Z,99182.44
2023-03-12T05:29:24.737Z,99191.31
2023-03-12T05:31:56.691Z,99197.41
2023-03-12T05:34:25.316Z,99202.44
2023-03-12T05:36:55.226Z,99210.75
2023-03-12T05:39:26.844Z,99205.81
2023-03-12T05:41:58.035Z,99216.34
2023-03-12T05:44:28.042Z,99220.19
2023-03-12T05:46:59.225Z,99225.94
2023-03-12T05:49:28.860Z,99232.84
2023-03-12T05:51:59.970Z,99235.06
2023-03-12T05:54:29.232Z,99232.34
2023-03-12T05:56:59.177Z,99247.50
2023-03-12T05:59:29.403Z,99244.28
2023-03-12T06:02:00.298Z,99241.72
2023-03-12T06:04:29.780Z,99249.44
2023-03-12T06:06:58.819Z,99253.72
2023-03-12T06:09:28.269Z,99261.94
2023-03-12T06:11:58.004Z,99263.41
2023-03-12T06:14:26.983Z,99263.84
2023-03-12T06:16:57.199Z,99255.53
2023-03-12T06:19:27.337Z,99267.31
2023-03-12T06:21:56.281Z,99270.06
2023-03-12T06:24:25.123Z,99281.84
2023-03-12T06:27:02.606Z,99283.31
2023-03-12T06:29:31.186Z,99273.06
2023-03-12T06:32:00.330Z,99283.31
2023-03-12T06:34:30.411Z,99282.88
2023-03-12T06:36:59.773Z,99276.06
2023-03-12T06:39:29.983Z,99299.41
2023-03-12T06:41:58.951Z,99285.25
2023-03-12T06:44:27.491Z,99282.88
2023-03-12T06:46:56.526Z,99301.59
2023-03-12T06:49:25.252Z,99286.00
2023-03-12T06:51:57.103Z,99279.81
2023-03-12T06:54:26.462Z,99275.81
2023-03-12T06:56:55.346Z,99290.94
2023-03-12T06:59:23.926Z,99296.75
2023-03-12T07:01:53.338Z,99292.88
2023-03-12T07:04:22.518Z,99294.75
2023-03-12T07:06:51.515Z,99307.66
2023-03-12T07:09:22.137Z,99302.75
2023-03-12T07:11:51.009Z,99309.59
2023-03-12T07:14:21.349Z,99302.75
2023-03-12T07:16:50.904Z,99307.00
2023-03-12T07:19:20.012Z,99304.06
2023-03-12T07:21:48.899Z,99308.31
2023-03-12T07:24:17.724Z,99303.63
2023-03-12T07:26:48.313Z,99310.09
2023-03-12T07:29:16.946Z,99334.94
2023-03-12T07:31:46.083Z,99320.38
2023-03-12T07:34:14.788Z,99316.28
2023-03-12T07:36:43.980Z,99334.03
2023-03-12T07:39:12.779Z,99339.66
2023-03-12T07:41:41.791Z,99346.91
2023-03-12T07:44:13.648Z,99344.97
2023-03-12T07:46:42.808Z,99350.50
2023-03-12T07:49:11.390Z,99349.63
2023-03-12T07:51:40.376Z,99359.41
2023-03-12T07:54:08.995Z,99367.81
2023-03-12T07:56:38.163Z,99366.91
2023-03-12T07:59:06.992Z,99387.03
2023-03-12T08:01:37.559Z,99376.69
2023-03-12T08:04:06.409Z,99374.22
2023-03-12T08:06:35.654Z,99392.59
2023-03-12T08:09:04.457Z,99387.44
2023-03-12T08:11:34.596Z,99391.28
2023-03-12T08:14:03.532Z,99397.69
2023-03-12T08:16:32.671Z,99405.06
2023-03-12T08:19:02.761Z,99383.78
2023-03-12T08:21:31.643Z,99384.28
2023-03-12T08:24:00.191Z,99401.00
2023-03-12T08:26:29.112Z,99407.50
2023-03-12T08:29:00.242Z,99403.41
2023-03-12T08:31:29.720Z,99410.25
2023-03-12T08:33:58.300Z,99414.19
2023-03-12T08:36:29.157Z,99399.13
2023-03-12T08:38:57.870Z,99396.34
2023-03-12T08:41:27.228Z,99403.59
2023-03-12T08:43:56.225Z,99408.09
2023-03-12T08:46:25.414Z,99400.31
2023-03-12T08:48:54.250Z,99402.16
2023-03-12T08:51:23.288Z,99402.88
2023-03-12T08:53:53.202Z,99407.13
2023-03-12T08:56:22.430Z,99399.13
2023-03-12T08:58:51.639Z,99405.38
2023-03-12T09:01:20.494Z,99408.44
2023-03-12T09:03:51.078Z,99417.47
2023-03-12T09:06:20.318Z,99416.25
2023-03-12T09:08:49.317Z,99407.97
2023-03-12T09:11:19.878Z,99398.34
2023-03-12T09:14:16.938Z,99411.16
2023-03-12T09:16:37.633Z,99411.84
2023-03-12T09:19:06.356Z,99409.63
2023-03-12T09:21:35.388Z,99427.59
2023-03-12T09:24:03.928Z,99433.03
2023-03-12T09:26:34.572Z,99430.84
2023-03-12T09:29:03.164Z,99433.06
2023-03-12T09:31:32.149Z,99424.97
2023-03-12T09:34:00.880Z,99435.91
2023-03-12T09:36:29.875Z,99458.59
2023-03-12T09:38:58.836Z,99436.16
2023-03-12T09:41:30.242Z,99438.09
2023-03-12T09:44:05.398Z,99446.31
2023-03-12T09:46:38.199Z,99447.38
2023-03-12T09:49:12.846Z,99428.88
2023-03-12T09:51:49.373Z,99428.97
2023-03-12T09:54:26.055Z,99437.41
2023-03-12T09:56:59.328Z,99434.34
2023-03-12T09:59:29.603Z,99449.94
2023-03-12T10:02:02.696Z,99438.00
2023-03-12T10:04:58.655Z,99439.53
2023-03-12T10:07:37.001Z,99414.34
2023-03-12T10:10:29.236Z,99442.97
2023-03-12T10:13:15.523Z,99436.66
2023-03-12T10:15:58.533Z,99427.88
2023-03-12T10:18:45.768Z,99437.69
2023-03-12T10:21:24.058Z,99448.09
2023-03-12T10:24:09.925Z,99433.06
2023-03-12T10:26:41.499Z,99445.59
2023-03-12T10:29:17.428Z,99445.81
2023-03-12T10:31:55.684Z,99448.00
2023-03-12T10:34:29.901Z,99428.56
2023-03-12T10:37:01.965Z,99434.06
2023-03-12T10:39:30.965Z,99432.97
2023-03-12T10:42:02.244Z,99444.88
2023-03-12T10:44:32.100Z,99444.19
2023-03-12T10:47:13.542Z,99443.25
2023-03-12T10:49:43.021Z,99434.16
2023-03-12T10:52:17.308Z,99425.25
2023-03-12T10:54:48.648Z,99441.41
2023-03-12T10:57:17.535Z,99428.31
2023-03-12T10:59:49.922Z,99445.72
2023-03-12T11:02:32.551Z,99440.53
2023-03-12T11:05:03.490Z,99431.41
2023-03-12T11:07:33.631Z,99440.56
2023-03-12T11:10:19.697Z,99431.25
2023-03-12T11:13:03.541Z,99428.69
2023-03-12T11:15:40.649Z,99438.13
2023-03-12T11:18:37.902Z,99441.38
2023-03-12T11:21:17.373Z,99424.50
2023-03-12T11:23:48.438Z,99429.09
2023-03-12T11:26:20.712Z,99424.13
2023-03-12T11:28:51.281Z,99436.69
2023-03-12T11:31:27.944Z,99422.97
2023-03-12T11:34:04.507Z,99429.25
2023-03-12T11:36:47.012Z,99430.06
2023-03-12T11:39:27.325Z,99419.75
2023-03-12T11:42:10.158Z,99430.97
2023-03-12T11:44:52.886Z,99424.81
2023-03-12T11:47:35.418Z,99431.97
2023-03-12T11:50:25.669Z,99434.03
2023-03-12T11:53:08.980Z,99441.88
2023-03-12T11:55:50.146Z,99438.53
2023-03-12T11:58:47.786Z,99427.81
2023-03-12T12:01:28.212Z,99422.16
2023-03-12T12:04:34.511Z,99432.44
2023-03-12T12:07:13.659Z,99438.84
2023-03-12T12:09:49.852Z,99447.47
2023-03-12T12:12:30.987Z,99441.00
2023-03-12T12:15:12.463Z,99437.16
2023-03-12T12:17:55.951Z,99420.31
2023-03-12T12:20:35.448Z,99426.38
2023-03-12T12:23:18.162Z,99440.88
2023-03-12T12:26:06.770Z,99435.56
2023-03-12T12:28:58.266Z,99422.16
2023-03-12T12:31:33.497Z,99436.94
2023-03-12T12:34:17.352Z,99439.31
2023-03-12T12:36:52.513Z,99429.13
2023-03-12T12:39:32.577Z,99428.25
2023-03-12T12:42:09.115Z,99439.41
2023-03-12T12:44:44.808Z,99436.78
2023-03-12T12:47:19.794Z,99435.22
2023-03-12T12:49:50.915Z,99437.81
2023-03-12T12:52:21.899Z,99435.16
2023-03-12T12:55:01.001Z,99437.66
2023-03-12T12:57:37.792Z,99453.72
2023-03-12T13:00:24.762Z,99430.75
2023-03-12T13:02:56.602Z,99432.59
2023-03-12T13:05:28.308Z,99427.41
2023-03-12T13:07:57.454Z,99429.06
2023-03-12T13:10:53.145Z,99430.88
2023-03-12T13:13:27.582Z,99433.16
2023-03-12T13:16:31.358Z,99439.38
2023-03-12T13:19:01.741Z,99436.00
2023-03-12T13:21:39.801Z,99448.91
2023-03-12T13:24:20.702Z,99443.59
2023-03-12T13:26:59.155Z,99453.88
2023-03-12T13:29:40.095Z,99454.00
2023-03-12T13:32:21.601Z,99448.81
2023-03-12T13:34:50.810Z,99440.25
2023-03-12T13:37:32.062Z,99441.22
2023-03-12T13:40:08.292Z,99443.72
2023-03-12T13:42:41.936Z,99454.16
2023-03-12T13:45:29.030Z,99454.94
2023-03-12T13:48:01.762Z,99441.88
2023-03-12T13:50:33.288Z,99458.56
2023-03-12T13:53:05.417Z,99467.22
2023-03-12T13:55:36.241Z,99459.09
2023-03-12T13:58:16.009Z,99474.41
2023-03-12T14:00:52.929Z,99461.97
2023-03-12T14:03:26.787Z,99464.94
2023-03-12T14:06:00.123Z,99467.06
2023-03-12T14:08:56.037Z,99443.00
2023-03-12T14:11:40.253Z,99451.72
2023-03-12T14:14:31.207Z,99453.25
2023-03-12T14:17:02.978Z,99451.56
2023-03-12T14:19:34.416Z,99456.75
2023-03-12T14:22:06.591Z,99454.19
2023-03-12T14:24:39.642Z,99470.34
2023-03-12T14:27:19.086Z,99470.09
2023-03-12T14:29:56.578Z,99452.34
2023-03-12T14:32:30.895Z,99447.31
2023-03-12T14:35:14.417Z,99451.44
2023-03-12T14:37:48.020Z,99461.63
2023-03-12T14:40:25.531Z,99459.09
2023-03-12T14:42:55.954Z,99467.81
2023-03-12T14:45:27.290Z,99456.78
2023-03-12T14:47:57.950Z,99444.66
2023-03-12T14:50:28.329Z,99460.13
2023-03-12T14:53:12.203Z,99449.84
2023-03-12T14:55:40.910Z,99461.88
2023-03-12T14:58:18.407Z,99468.50
2023-03-12T15:00:58.841Z,99466.16
2023-03-12T15:03:29.914Z,99468.81
2023-03-12T15:05:59.176Z,99463.63
2023-03-12T15:08:28.312Z,99469.44
2023-03-12T15:10:59.577Z,99461.97
2023-03-12T15:13:29.180Z,99470.38
2023-03-12T15:15:59.886Z,99471.81
2023-03-12T15:18:31.355Z,99480.47
2023-03-12T15:21:03.095Z,99480.38
2023-03-12T15:23:36.251Z,99476.75
2023-03-12T15:26:14.520Z,99490.66
2023-03-12T15:28:44.673Z,99481.13
2023-03-12T15:31:17.929Z,99485.41
2023-03-12T15:34:00.706Z,99486.28
2023-03-12T15:36:31.222Z,99491.50
2023-03-12T15:39:05.595Z,99494.03
2023-03-12T15:41:48.107Z,99485.53
2023-03-12T15:44:23.103Z,99492.63
2023-03-12T15:46:55.155Z,99492.81
2023-03-12T15:49:28.048Z,99488.84
2023-03-12T15:52:02.241Z,99484.66
2023-03-12T15:54:32.286Z,99478.63
2023-03-12T15:57:23.325Z,99484.75
2023-03-12T16:00:19.503Z,99481.25
2023-03-12T16:02:53.323Z,99486.44
2023-03-12T16:05:25.792Z,99485.50
2023-03-12T16:07:54.873Z,99480.28
2023-03-12T16:10:26.925Z,99476.75
2023-03-12T16:13:03.169Z,99480.22
2023-03-12T16:15:34.304Z,99483.69
2023-03-12T16:18:05.233Z,99495.84
2023-03-12T16:20:34.332Z,99498.47
2023-03-12T16:23:03.078Z,99500.19
2023-03-12T16:25:32.537Z,99506.31
2023-03-12T16:28:04.797Z,99503.78
2023-03-12T16:30:36.053Z,99512.50
2023-03-12T16:33:09.175Z,99521.97
2023-03-12T16:35:38.501Z,99533.13
2023-03-12T16:38:07.866Z,99536.44
2023-03-12T16:40:40.288Z,99548.19
2023-03-12T16:43:16.812Z,99543.72
2023-03-12T16:45:47.982Z,99545.44
2023-03-12T16:48:20.180Z,99548.72
2023-03-12T16:50:53.212Z,99552.16
2023-03-12T16:53:23.306Z,99559.94
2023-03-12T16:55:55.745Z,99560.91
2023-03-12T16:58:26.096Z,99549.75
2023-03-12T17:00:56.818Z,99556.13
2023-03-12T17:03:35.616Z,99547.72
2023-03-12T17:06:06.593Z,99557.84
2023-03-12T17:08:36.094Z,99559.53
2023-03-12T17:11:16.408Z,99573.47
2023-03-12T17:13:46.908Z,99580.38
2023-03-12T17:16:16.020Z,99581.97
2023-03-12T17:18:46.527Z,99584.69
2023-03-12T17:21:17.883Z,99579.53
2023-03-12T17:23:49.257Z,99589.03
2023-03-12T17:26:19.806Z,99591.69
2023-03-12T17:28:48.710Z,99592.66
2023-03-12T17:31:17.753Z,99602.16
2023-03-12T17:33:47.971Z,99603.75
2023-03-12T17:36:16.986Z,99607.88
2023-03-12T17:38:45.789Z,99609.63
2023-03-12T17:41:25.879Z,99609.03
2023-03-12T17:43:58.603Z,99617.34
2023-03-12T17:46:27.538Z,99616.53
2023-03-12T17:48:57.709Z,99615.53
2023-03-12T17:51:26.989Z,99619.06
2023-03-12T17:53:55.654Z,99617.31
2023-03-12T17:56:24.874Z,99621.56
2023-03-12T17:58:53.581Z,99627.94
2023-03-12T18:01:22.641Z,99623.06
2023-03-12T18:03:51.325Z,99625.91
2023-03-12T18:06:21.854Z,99623.47
2023-03-12T18:08:51.213Z,99626.13
2023-03-12T18:11:20.189Z,99627.91
2023-03-12T18:13:49.313Z,99633.19
2023-03-12T18:16:19.066Z,99634.09
2023-03-12T18:18:47.775Z,99640.22
2023-03-12T18:21:17.029Z,99640.19
2023-03-12T18:23:47.169Z,99636.72
2023-03-12T18:26:16.210Z,99648.00
2023-03-12T18:28:44.895Z,99645.44
2023-03-12T18:31:14.110Z,99654.16
2023-03-12T18:33:43.007Z,99654.19
2023-03-12T18:36:12.283Z,99657.66
2023-03-12T18:38:41.538Z,99656.78
2023-03-12T18:41:14.231Z,99657.69
2023-03-12T18:43:43.519Z,99658.53
2023-03-12T18:46:13.191Z,99658.53
2023-03-12T18:48:44.131Z,99666.34
2023-03-12T18:51:13.545Z,99663.75
2023-03-12T18:53:42.405Z,99672.44
2023-03-12T18:56:13.296Z,99666.38
2023-03-12T18:58:42.340Z,99659.41
2023-03-12T19:01:13.504Z,99665.50
2023-03-12T19:03:42.183Z,99670.69
2023-03-12T19:06:13.268Z,99668.09
2023-03-12T19:08:42.845Z,99671.56
2023-03-12T19:11:15.296Z,99667.22
2023-03-12T19:13:44.283Z,99669.81
2023-03-12T19:16:17.927Z,99686.34
2023-03-12T19:18:46.722Z,99688.91
2023-03-12T19:21:16.499Z,99678.50
2023-03-12T19:23:45.591Z,99685.41
2023-03-12T19:26:16.093Z,99687.19
2023-03-12T19:28:45.459Z,99687.13
2023-03-12T19:31:17.019Z,99689.75
2023-03-12T19:33:45.613Z,99694.09
2023-03-12T19:36:14.578Z,99694.06
2023-03-12T19:38:43.330Z,99692.31
2023-03-12T19:41:12.592Z,99699.28
2023-03-12T19:43:42.792Z,99698.41
2023-03-12T19:46:12.097Z,99694.91
2023-03-12T19:48:40.914Z,99687.94
2023-03-12T19:51:11.832Z,99692.31
2023-03-12T19:53:40.518Z,99694.91
2023-03-12T19:56:09.519Z,99694.03
2023-03-12T19:58:38.177Z,99694.91
2023-03-12T20:01:08.391Z,99706.19
2023-03-12T20:03:43.133Z,99699.25
2023-03-12T20:06:13.460Z,99713.16
2023-03-12T20:08:42.033Z,99714.88
2023-03-12T20:11:11.973Z,99708.75
2023-03-12T20:13:40.858Z,99713.06
2023-03-12T20:16:13.244Z,99714.78
2023-03-12T20:18:42.134Z,99721.75
2023-03-12T20:21:11.365Z,99723.44
2023-03-12T20:23:40.114Z,99722.59
2023-03-12T20:26:08.961Z,99733.00
2023-03-12T20:28:37.594Z,99733.84
2023-03-12T20:31:12.986Z,99733.03
2023-03-12T20:33:41.924Z,99733.00
2023-03-12T20:36:13.493Z,99726.03
2023-03-12T20:38:42.728Z,99738.19
2023-03-12T20:41:14.223Z,99736.47
2023-03-12T20:43:43.181Z,99738.19
2023-03-12T20:46:14.163Z,99739.88
2023-03-12T20:48:42.883Z,99745.00
2023-03-12T20:51:12.078Z,99738.94
2023-03-12T20:53:40.790Z,99738.03
2023-03-12T20:56:10.769Z,99745.81
2023-03-12T20:58:39.652Z,99748.44
2023-03-12T21:01:09.132Z,99751.06
2023-03-12T21:03:41.852Z,99751.81
2023-03-12T21:06:10.834Z,99750.94
2023-03-12T21:08:39.624Z,99754.31
2023-03-12T21:11:09.473Z,99753.47
2023-03-12T21:13:38.400Z,99755.13
2023-03-12T21:16:08.039Z,99756.84
2023-03-12T21:18:38.635Z,99753.47
2023-03-12T21:21:09.474Z,99751.69
2023-03-12T21:23:38.960Z,99744.78
2023-03-12T21:26:09.595Z,99746.53
2023-03-12T21:28:38.569Z,99754.13
2023-03-12T21:31:09.175Z,99744.59
2023-03-12T21:33:39.545Z,99747.09
2023-03-12T21:36:12.220Z,99738.47
2023-03-12T21:38:42.782Z,99744.50
2023-03-12T21:41:14.892Z,99741.81
2023-03-12T21:43:43.944Z,99755.56
2023-03-12T21:46:14.877Z,99747.69
2023-03-12T21:48:47.842Z,99758.16
2023-03-12T21:51:19.194Z,99760.69
2023-03-12T21:53:48.000Z,99759.59
2023-03-12T21:56:17.206Z,99759.78
2023-03-12T21:58:45.902Z,99759.03
2023-03-12T22:01:16.663Z,99753.81
2023-03-12T22:03:48.105Z,99741.72
2023-03-12T22:06:17.847Z,99756.16
2023-03-12T22:08:48.187Z,99754.28
2023-03-12T22:11:17.584Z,99760.53
2023-03-12T22:13:46.499Z,99763.13
2023-03-12T22:16:16.144Z,99764.00
2023-03-12T22:18:47.388Z,99762.34
2023-03-12T22:21:18.864Z,99760.53
2023-03-12T22:23:51.198Z,99762.03
2023-03-12T22:26:21.484Z,99765.63
2023-03-12T22:28:51.506Z,99769.84
2023-03-12T22:31:21.882Z,99765.44
2023-03-12T22:33:51.909Z,99761.88
2023-03-12T22:36:21.445Z,99755.97
2023-03-12T22:38:50.800Z,99753.50
2023-03-12T22:41:22.364Z,99750.09
2023-03-12T22:43:52.824Z,99758.00
2023-03-12T22:46:23.494Z,99760.56
2023-03-12T22:48:56.625Z,99756.31
2023-03-12T22:51:26.833Z,99756.38
2023-03-12T22:53:55.619Z,99755.47
2023-03-12T22:56:24.926Z,99761.47
2023-03-12T22:58:53.904Z,99760.59
2023-03-12T23:01:24.085Z,99765.78
2023-03-12T23:03:54.451Z,99763.06
2023-03-12T23:06:25.720Z,99761.44
2023-03-12T23:08:55.872Z,99770.09
2023-03-12T23:11:26.481Z,99776.25
2023-03-12T23:13:55.791Z,99760.66
2023-03-12T23:16:26.592Z,99765.03
2023-03-12T23:18:57.326Z,99780.59
2023-03-12T23:21:26.371Z,99797.06
2023-03-12T23:23:55.492Z,99788.50
2023-03-12T23:26:26.770Z,99790.34
2023-03-12T23:28:55.578Z,99788.63
2023-03-12T23:31:24.671Z,99785.19
2023-03-12T23:33:53.500Z,99792.03
2023-03-12T23:36:25.480Z,99784.16
2023-03-12T23:38:54.139Z,99781.94
2023-03-12T23:41:24.572Z,99771.69
2023-03-12T23:43:53.762Z,99773.72
2023-03-12T23:46:23.050Z,99770.47
2023-03-12T23:48:51.839Z,99759.47
2023-03-12T23:51:24.101Z,99760.56
2023-03-12T23:53:57.695Z,99765.31
2023-03-12T23:56:28.335Z,99776.25
2023-03-12T23:58:56.903Z,99771.28
